createdAt,value
2022-12-31T00:22:07.305Z,1016.97
2022-12-31T00:50:55.329Z,1016.91
2022-12-31T01:19:48.468Z,1017.27
2022-12-31T01:48:42.591Z,1017.45
2022-12-31T02:17:33.646Z,1017.73
2022-12-31T02:46:34.423Z,1017.84
2022-12-31T03:15:30.112Z,1017.77
2022-12-31T03:44:29.189Z,1018.06
2022-12-31T04:13:29.114Z,1018.02
2022-12-31T04:42:29.342Z,1018.1
2022-12-31T05:11:30.633Z,1017.8
2022-12-31T05:40:32.257Z,1018.16
2022-12-31T06:09:29.169Z,1018.29
2022-12-31T06:38:27.618Z,1018.39
2022-12-31T07:07:26.660Z,1018.66
2022-12-31T07:36:22.608Z,1018.9
2022-12-31T08:05:12.465Z,1018.82
2022-12-31T08:34:06.947Z,1019.35
2022-12-31T09:02:48.914Z,1019.39
2022-12-31T09:31:00.781Z,1019.44
2022-12-31T09:59:33.789Z,1019.46
2022-12-31T10:28:08.917Z,1019.29
2022-12-31T10:56:40.244Z,1018.7
2022-12-31T11:25:20.507Z,1018.56
2022-12-31T11:54:05.039Z,1018.38
2022-12-31T12:22:50.185Z,1018.15
2022-12-31T12:51:08.198Z,1017.91
2022-12-31T13:19:43.770Z,1017.89
2022-12-31T13:48:14.047Z,1017.98
2022-12-31T14:16:49.676Z,1018.07
2022-12-31T14:45:21.272Z,1018.11
2022-12-31T15:13:59.259Z,1018.17
2022-12-31T15:42:51.022Z,1018.08
2022-12-31T16:11:07.333Z,1018.31
2022-12-31T16:39:50.665Z,1018.51
2022-12-31T17:08:30.988Z,1018.65
2022-12-31T17:37:19.202Z,1018.7
2022-12-31T18:05:37.505Z,1019.02
2022-12-31T18:34:07.548Z,1019.27
2022-12-31T19:02:41.071Z,1019.53
2022-12-31T19:31:16.561Z,1019.48
2022-12-31T19:59:57.837Z,1019.29
2022-12-31T20:28:30.368Z,1019.48
2022-12-31T20:57:10.797Z,1019.61
2022-12-31T21:25:45.091Z,1019.85
2022-12-31T21:54:20.316Z,1019.99
2022-12-31T22:23:04.713Z,1020.19
2022-12-31T22:52:04.324Z,1020.45
2022-12-31T23:20:09.811Z,1020.76
2022-12-31T23:48:44.489Z,1020.72
